Current Conditions

Updated: 06-Dec-2016 04:02 AM  
Summary / Temperature Wind Rain






Feels like: 42°F

1-hour difference
0.4°F 0.4°F warmer than last hour.

24-hour difference
6.5°F6.5°F warmer than yesterday at this time.

  Today Yesterday
High: 43.8°F
12:00 AM
61.7°F
2:49 PM
Low: 41.8°F
2:45 AM
34.5°F
5:32 AM
Calm NW
0.0
Gust:  0.0 mph
0 Beaufort - Calm

Today: 1.2 - 12:09 PM
Month: 6.0 mph - Dec 4
Rain Today: 0.00 in
Current Rate (/hr): 0.000 in
Max Rate (/hr):
Rain Yesterday: 0.00 in
Storm Rain: 0.00 in
This Month: 0.00 in
Season Total: 1.10 in
Last Rain Event: 8 days ago
Humidity / Barometer Sun / Moon
Humidity: 92  
Dew Point: 40.2°F Increased 0.4°F in the last hour.
Barometer: 30.026 inHg  
Baro Trend: Steady
Sunrise: 6:53 AM
Sunset: 4:41 PM
Moonrise: 12:00 PM
Moonset: 10:32 PM
Sky Conditions UV Index
Summary: Mist, Clear
Visibility: 4 miles
Clouds: None
KPTV - 3:56 AM PST
Current: 0.0  None 
Tuesday: 2.5  Low 
Wednesday: 2.5  Low 
Air Quality Fire Danger
  Temporarily unavailable  
Current: 0  Low 

Local Alerts Local Forecast
Local NWS Alerts
Today

Partly
Cloudy
High 55
Tonight

Mostly
Clear
Low 34
Wed

Partly
Cloudy
High 55
Wed night

Partly
Cloudy
Low 37
Thu

Rain
Showers
High 63
Thu night

Rain
Showers
Low 45
Fri

Rain
Showers
High 63

Local Radar Local Satellite Neighborhood Cam Sky Cam
Local Radar Local Satellite Neighborhood Cam Sky Cam


Nearby Personal Stations

Weather Underground PWS KCAPORTE11     Weather Underground PWS KCAPORTE8

Nearby Airport Stations

KPTV - Porterville, California, USA
Distance from station: SSW 4mi, 7km
Updated: Tue, 06-Dec-2016 3:56am PST
Mist, Clear
Mist, Clear
 Wind from S
Wind: S 3 mph , 6 km/h
Temperature: 39°F , 4°C
Dew Point: 37°F , 3°C
Humidity: 93%
Barometer: 30.03 inHg , 1016.9 hPa
Summary: Mist
Clouds: Clear
Visibility: 4 miles , 6 km
2016/12/06 11:56 KPTV 061156Z AUTO 18003KT 4SM BR CLR 04/03 A3003 RMK AO2 SLP185 T00440028 10067 20039 58008
KVIS - Visalia, California, USA
Distance from station: NW 27mi, 43km
Updated: Tue, 06-Dec-2016 3:56am PST
Fog, Overcast
Fog, Overcast
 Wind from calm
Wind: Calm
Temperature: 43°F , 6°C
Dew Point: 41°F , 5°C
Humidity: 93%
Barometer: 30.03 inHg , 1016.9 hPa
Summary: Fog
Clouds: Overcast
Visibility: 1/4 mile , 2 km
Cloud details: Overcast 200 ft
2016/12/06 11:56 KVIS 061156Z AUTO 00000KT 1/4SM FG OVC002 06/05 A3003 RMK AO2 SLP178 T00560050 10067 20044 56009

Metar display script from Saratoga-Weather.org



Visitor Map